createdAt,value
2022-12-04T00:02:33.680Z,2.50
2022-12-04T00:05:20.805Z,2.50
2022-12-04T00:08:09.440Z,2.50
2022-12-04T00:10:56.513Z,2.50
2022-12-04T00:13:44.313Z,2.50
2022-12-04T00:16:31.543Z,2.50
2022-12-04T00:19:18.751Z,2.50
2022-12-04T00:22:06.095Z,2.60
2022-12-04T00:24:54.402Z,2.60
2022-12-04T00:27:41.337Z,2.60
2022-12-04T00:30:28.616Z,2.60
2022-12-04T00:33:15.670Z,2.60
2022-12-04T00:36:05.352Z,2.60
2022-12-04T00:38:52.686Z,2.60
2022-12-04T00:41:41.633Z,2.60
2022-12-04T00:44:28.835Z,2.60
2022-12-04T00:47:15.892Z,2.60
2022-12-04T00:50:02.939Z,2.70
2022-12-04T00:52:49.672Z,2.70
2022-12-04T00:55:39.244Z,2.70
2022-12-04T00:58:27.796Z,2.70
2022-12-04T01:01:16.985Z,2.70
2022-12-04T01:04:04.137Z,2.70
2022-12-04T01:06:51.087Z,2.70
2022-12-04T01:09:38.500Z,2.60
2022-12-04T01:12:25.570Z,2.60
2022-12-04T01:15:14.130Z,2.60
2022-12-04T01:18:01.221Z,2.60
2022-12-04T01:20:50.789Z,2.60
2022-12-04T01:23:38.090Z,2.60
2022-12-04T01:26:25.350Z,2.60
2022-12-04T01:29:12.405Z,2.60
2022-12-04T01:32:00.928Z,2.60
2022-12-04T01:34:47.895Z,2.50
2022-12-04T01:37:35.064Z,2.50
2022-12-04T01:40:22.071Z,2.50
2022-12-04T01:43:13.530Z,2.40
2022-12-04T01:46:01.779Z,2.40
2022-12-04T01:48:54.502Z,2.40
2022-12-04T01:51:43.964Z,2.40
2022-12-04T01:54:34.018Z,2.30
2022-12-04T01:57:23.546Z,2.30
2022-12-04T02:00:13.432Z,2.20
2022-12-04T02:03:00.630Z,2.10
2022-12-04T02:05:48.867Z,1.90
2022-12-04T02:08:37.338Z,1.70
2022-12-04T02:11:32.335Z,1.60
2022-12-04T02:14:27.053Z,1.50
2022-12-04T02:17:23.541Z,1.40
2022-12-04T02:20:28.267Z,1.20
2022-12-04T02:23:38.271Z,1.10
2022-12-04T02:26:38.048Z,1.00
2022-12-04T02:29:38.029Z,1.00
2022-12-04T02:32:30.462Z,0.90
2022-12-04T02:35:22.368Z,0.90
2022-12-04T02:38:17.611Z,0.80
2022-12-04T02:41:12.114Z,0.80
2022-12-04T02:44:03.055Z,0.90
2022-12-04T02:46:57.467Z,0.90
2022-12-04T02:49:48.148Z,1.00
2022-12-04T02:52:39.903Z,1.10
2022-12-04T02:55:31.842Z,1.20
2022-12-04T02:58:24.860Z,1.30
2022-12-04T03:01:23.943Z,1.30
2022-12-04T03:04:17.372Z,1.40
2022-12-04T03:07:10.415Z,1.50
2022-12-04T03:10:01.933Z,1.50
2022-12-04T03:12:54.361Z,1.60
2022-12-04T03:15:44.546Z,1.60
2022-12-04T03:18:37.507Z,1.60
2022-12-04T03:25:47.301Z,1.40
2022-12-04T03:28:39.188Z,1.30
2022-12-04T03:31:33.622Z,1.30
2022-12-04T03:34:28.421Z,1.20
2022-12-04T03:37:19.327Z,1.20
2022-12-04T03:40:12.194Z,1.20
2022-12-04T03:43:04.664Z,1.20
2022-12-04T03:45:56.421Z,1.20
2022-12-04T03:48:47.871Z,1.30
2022-12-04T03:51:37.731Z,1.30
2022-12-04T03:54:29.997Z,1.30
2022-12-04T03:57:21.363Z,1.20
2022-12-04T04:00:13.367Z,1.20
2022-12-04T04:03:07.367Z,1.10
2022-12-04T04:05:59.793Z,1.10
2022-12-04T04:08:51.584Z,1.10
2022-12-04T04:11:45.561Z,1.10
2022-12-04T04:14:53.405Z,1.10
2022-12-04T04:18:05.787Z,1.10
2022-12-04T04:21:16.978Z,1.10
2022-12-04T04:24:18.211Z,1.10
2022-12-04T04:27:06.048Z,1.10
2022-12-04T04:29:53.202Z,1.20
2022-12-04T04:32:46.896Z,1.20
2022-12-04T04:35:42.858Z,1.20
2022-12-04T04:38:33.163Z,1.20
2022-12-04T04:41:26.629Z,1.20
2022-12-04T04:44:20.123Z,1.30
2022-12-04T04:47:12.244Z,1.30
2022-12-04T04:50:04.181Z,1.30
2022-12-04T04:52:52.992Z,1.40
2022-12-04T04:55:40.079Z,1.40
2022-12-04T04:58:27.006Z,1.50
2022-12-04T05:01:15.675Z,1.60
2022-12-04T05:04:02.343Z,1.60
2022-12-04T05:06:50.180Z,1.60
2022-12-04T05:09:41.070Z,1.60
2022-12-04T05:12:28.192Z,1.70
2022-12-04T05:15:15.115Z,1.70
2022-12-04T05:18:01.808Z,1.70
2022-12-04T05:20:48.619Z,1.80
2022-12-04T05:23:36.815Z,1.90
2022-12-04T05:26:23.100Z,2.00
2022-12-04T05:29:09.597Z,2.10
2022-12-04T05:31:56.619Z,2.30
2022-12-04T05:34:44.086Z,2.30
2022-12-04T05:37:30.975Z,2.40
2022-12-04T05:40:18.935Z,2.40
2022-12-04T05:43:05.328Z,2.40
2022-12-04T05:45:52.118Z,2.50
2022-12-04T05:48:38.647Z,2.50
2022-12-04T05:51:25.057Z,2.50
2022-12-04T05:54:11.514Z,2.50
2022-12-04T05:57:00.067Z,2.50
2022-12-04T05:59:46.423Z,2.60
2022-12-04T06:02:35.126Z,2.60
2022-12-04T06:05:21.976Z,2.70
2022-12-04T06:08:08.850Z,2.70
2022-12-04T06:10:55.697Z,2.70
2022-12-04T06:13:45.154Z,2.70
2022-12-04T06:16:34.374Z,2.70
2022-12-04T06:19:23.409Z,2.70
2022-12-04T06:22:10.159Z,2.70
2022-12-04T06:24:56.567Z,2.70
2022-12-04T06:27:44.334Z,2.60
2022-12-04T06:30:32.299Z,2.60
2022-12-04T06:33:18.957Z,2.60
2022-12-04T06:36:07.862Z,2.60
2022-12-04T06:38:56.868Z,2.60
2022-12-04T06:41:43.477Z,2.50
2022-12-04T06:44:30.289Z,2.50
2022-12-04T06:47:17.891Z,2.50
2022-12-04T06:50:05.334Z,2.50
2022-12-04T06:52:51.594Z,2.50
2022-12-04T06:55:38.124Z,2.50
2022-12-04T06:58:25.172Z,2.60
2022-12-04T07:01:14.320Z,2.60
2022-12-04T07:04:04.273Z,2.70
2022-12-04T07:06:50.891Z,2.80
2022-12-04T07:09:37.594Z,2.80
2022-12-04T07:12:24.296Z,2.80
2022-12-04T07:15:11.906Z,2.90
2022-12-04T07:17:58.882Z,2.90
2022-12-04T07:20:47.166Z,2.90
2022-12-04T07:23:33.645Z,2.90
2022-12-04T07:26:21.597Z,2.90
2022-12-04T07:29:08.106Z,3.00
2022-12-04T07:31:55.090Z,3.10
2022-12-04T07:34:42.132Z,3.10
2022-12-04T07:37:30.406Z,3.20
2022-12-04T07:40:17.220Z,3.30
2022-12-04T07:43:03.510Z,3.40
2022-12-04T07:45:50.439Z,3.40
2022-12-04T07:48:37.356Z,3.50
2022-12-04T07:51:24.911Z,3.50
2022-12-04T07:54:13.285Z,3.50
2022-12-04T07:57:00.075Z,3.60
2022-12-04T07:59:46.928Z,3.50
2022-12-04T08:02:33.733Z,3.50
2022-12-04T08:05:20.785Z,3.50
2022-12-04T08:08:07.379Z,3.50
2022-12-04T08:10:55.571Z,3.60
2022-12-04T08:13:42.573Z,3.60
2022-12-04T08:16:32.084Z,3.60
2022-12-04T08:19:18.800Z,3.70
2022-12-04T08:22:05.251Z,3.80
2022-12-04T08:24:52.515Z,3.90
2022-12-04T08:27:47.163Z,4.00
2022-12-04T08:30:34.679Z,4.10
2022-12-04T08:33:21.484Z,4.20
2022-12-04T08:36:09.987Z,4.40
2022-12-04T08:38:57.222Z,4.60
2022-12-04T08:41:44.148Z,4.80
2022-12-04T08:44:32.184Z,4.80
2022-12-04T08:47:19.172Z,4.80
2022-12-04T08:50:06.118Z,4.90
2022-12-04T08:52:53.031Z,4.90
2022-12-04T08:55:39.526Z,4.90
2022-12-04T08:58:26.043Z,5.00
2022-12-04T09:01:15.239Z,5.00
2022-12-04T09:04:02.143Z,5.10
2022-12-04T09:06:48.979Z,5.20
2022-12-04T09:09:35.797Z,5.30
2022-12-04T09:12:22.529Z,5.40
2022-12-04T09:15:10.613Z,5.40
2022-12-04T09:17:59.351Z,5.50
2022-12-04T09:20:46.285Z,5.50
2022-12-04T09:23:34.383Z,5.60
2022-12-04T09:26:23.947Z,5.70
2022-12-04T09:29:12.533Z,5.70
2022-12-04T09:31:59.304Z,5.80
2022-12-04T09:34:51.330Z,6.00
2022-12-04T09:37:39.613Z,6.10
2022-12-04T09:40:37.170Z,6.20
2022-12-04T09:43:32.449Z,6.30
2022-12-04T09:46:22.428Z,6.50
2022-12-04T09:49:15.803Z,6.60
2022-12-04T09:52:10.321Z,6.90
2022-12-04T09:54:58.692Z,7.20
2022-12-04T09:57:49.170Z,7.40
2022-12-04T10:00:39.914Z,7.50
2022-12-04T10:03:29.380Z,7.60
2022-12-04T10:06:20.973Z,7.70
2022-12-04T10:09:17.982Z,7.70
2022-12-04T10:12:14.426Z,7.70
2022-12-04T10:15:22.940Z,7.80
2022-12-04T10:18:22.385Z,7.90
2022-12-04T10:21:36.440Z,8.00
2022-12-04T10:24:36.087Z,7.90
2022-12-04T10:27:27.737Z,7.90
2022-12-04T10:30:20.370Z,7.90
2022-12-04T10:33:17.839Z,7.90
2022-12-04T10:36:06.396Z,7.90
2022-12-04T10:38:56.580Z,7.80
2022-12-04T10:41:52.297Z,7.70
2022-12-04T10:44:40.228Z,7.80
2022-12-04T10:47:27.205Z,7.90
2022-12-04T10:50:17.146Z,8.10
2022-12-04T10:53:03.723Z,8.30
2022-12-04T10:55:50.563Z,8.50
2022-12-04T10:58:38.734Z,8.60
2022-12-04T11:01:25.413Z,8.80
2022-12-04T11:04:22.495Z,8.90
2022-12-04T11:07:10.370Z,8.90
2022-12-04T11:09:59.427Z,8.90
2022-12-04T11:12:55.230Z,9.00
2022-12-04T11:15:46.628Z,9.00
2022-12-04T11:18:35.597Z,9.00
2022-12-04T11:21:27.404Z,8.90
2022-12-04T11:24:21.189Z,8.90
2022-12-04T11:27:16.785Z,8.90
2022-12-04T11:30:09.306Z,8.90
2022-12-04T11:32:57.914Z,9.00
2022-12-04T11:35:52.491Z,9.10
2022-12-04T11:38:39.523Z,9.20
2022-12-04T11:41:28.923Z,9.30
2022-12-04T11:44:26.634Z,9.20
2022-12-04T11:47:19.553Z,9.30
2022-12-04T11:50:15.239Z,9.20
2022-12-04T11:53:11.209Z,9.20
2022-12-04T11:56:10.935Z,9.20
2022-12-04T11:59:12.546Z,9.10
2022-12-04T12:02:16.426Z,9.10
2022-12-04T12:05:53.707Z,9.10
2022-12-04T12:08:55.537Z,9.00
2022-12-04T12:11:47.295Z,9.00
2022-12-04T12:14:42.151Z,8.80
2022-12-04T12:17:38.572Z,8.60
2022-12-04T12:20:33.493Z,8.30
2022-12-04T12:23:37.349Z,8.20
2022-12-04T12:26:31.272Z,8.10
2022-12-04T12:29:34.984Z,7.90
2022-12-04T12:32:46.541Z,7.90
2022-12-04T12:35:39.753Z,7.70
2022-12-04T12:38:32.720Z,7.60
2022-12-04T12:41:23.086Z,7.50
2022-12-04T12:44:15.894Z,7.30
2022-12-04T12:47:09.386Z,7.30
2022-12-04T12:50:01.723Z,7.30
2022-12-04T12:52:56.927Z,7.30
2022-12-04T12:55:49.306Z,7.30
2022-12-04T12:58:41.011Z,7.40
2022-12-04T13:01:39.690Z,7.50
2022-12-04T13:04:36.038Z,7.40
2022-12-04T13:07:29.708Z,7.40
2022-12-04T13:10:20.506Z,7.50
2022-12-04T13:13:13.172Z,7.50
2022-12-04T13:16:05.578Z,7.50
2022-12-04T13:19:00.155Z,7.40
2022-12-04T13:21:52.410Z,7.40
2022-12-04T13:24:57.760Z,7.30
2022-12-04T13:27:54.469Z,7.20
2022-12-04T13:30:51.912Z,7.10
2022-12-04T13:34:13.865Z,7.00
2022-12-04T13:37:15.751Z,7.00
2022-12-04T13:40:30.043Z,6.90
2022-12-04T13:43:21.900Z,6.70
2022-12-04T13:46:26.831Z,6.50
2022-12-04T13:49:26.918Z,6.30
2022-12-04T13:52:25.151Z,6.10
2022-12-04T13:55:28.767Z,6.00
2022-12-04T13:58:28.147Z,5.80
2022-12-04T14:01:27.223Z,5.60
2022-12-04T14:04:25.594Z,5.50
2022-12-04T14:07:25.826Z,5.40
2022-12-04T14:10:28.707Z,5.30
2022-12-04T14:13:20.732Z,5.30
2022-12-04T14:16:17.067Z,5.30
2022-12-04T14:19:07.069Z,5.20
2022-12-04T14:21:54.155Z,5.00
2022-12-04T14:24:41.130Z,4.90
2022-12-04T14:27:34.921Z,4.70
2022-12-04T14:30:24.752Z,4.60
2022-12-04T14:33:20.047Z,4.50
2022-12-04T14:36:12.188Z,4.40
2022-12-04T14:39:06.048Z,4.30
2022-12-04T14:41:56.820Z,4.30
2022-12-04T14:44:48.431Z,4.20
2022-12-04T14:47:44.000Z,4.10
2022-12-04T14:50:40.328Z,4.00
2022-12-04T14:53:32.282Z,3.90
2022-12-04T14:56:33.632Z,3.90
2022-12-04T14:59:22.118Z,3.80
2022-12-04T15:02:14.132Z,3.70
2022-12-04T15:05:02.708Z,3.70
2022-12-04T15:07:51.172Z,3.60
2022-12-04T15:10:57.418Z,3.50
2022-12-04T15:13:44.167Z,3.50
2022-12-04T15:16:31.156Z,3.40
2022-12-04T15:19:21.301Z,3.40
2022-12-04T15:22:14.655Z,3.30
2022-12-04T15:25:01.861Z,3.30
2022-12-04T15:27:54.199Z,3.20
2022-12-04T15:30:44.249Z,3.20
2022-12-04T15:33:36.338Z,3.20
2022-12-04T15:36:41.043Z,3.10
2022-12-04T15:39:29.724Z,3.10
2022-12-04T15:42:20.172Z,3.00
2022-12-04T15:45:31.752Z,3.00
2022-12-04T15:48:29.126Z,3.00
2022-12-04T15:51:17.402Z,2.90
2022-12-04T15:54:05.102Z,2.90
2022-12-04T15:57:00.995Z,2.90
2022-12-04T15:59:51.762Z,2.90
2022-12-04T16:02:42.907Z,2.90
2022-12-04T16:05:35.436Z,2.90
2022-12-04T16:08:25.483Z,2.80
2022-12-04T16:11:33.260Z,2.80
2022-12-04T16:14:20.694Z,2.80
2022-12-04T16:17:07.261Z,2.70
2022-12-04T16:19:56.882Z,2.70
2022-12-04T16:22:44.183Z,2.70
2022-12-04T16:25:31.923Z,2.70
2022-12-04T16:28:18.528Z,2.60
2022-12-04T16:31:05.746Z,2.70
2022-12-04T16:33:52.958Z,2.60
2022-12-04T16:36:41.401Z,2.60
2022-12-04T16:39:28.442Z,2.60
2022-12-04T16:42:17.594Z,2.60
2022-12-04T16:45:04.601Z,2.60
2022-12-04T16:47:51.872Z,2.50
2022-12-04T16:50:38.549Z,2.50
2022-12-04T16:53:26.582Z,2.40
2022-12-04T16:56:13.161Z,2.40
2022-12-04T16:58:59.489Z,2.40
2022-12-04T17:01:49.068Z,2.40
2022-12-04T17:04:36.220Z,2.40
2022-12-04T17:07:22.910Z,2.50
2022-12-04T17:10:12.836Z,2.40
2022-12-04T17:12:59.484Z,2.50
2022-12-04T17:15:47.067Z,2.50
2022-12-04T17:18:34.067Z,2.60
2022-12-04T17:21:21.186Z,2.50
2022-12-04T17:24:08.675Z,2.60
2022-12-04T17:26:58.268Z,2.60
2022-12-04T17:29:45.003Z,2.60
2022-12-04T17:32:34.924Z,2.70
2022-12-04T17:35:21.468Z,2.70
2022-12-04T17:38:07.661Z,2.70
2022-12-04T17:41:01.075Z,2.70
2022-12-04T17:43:49.352Z,2.70
2022-12-04T17:46:36.594Z,2.70
2022-12-04T17:49:23.430Z,2.70
2022-12-04T17:52:10.706Z,2.70
2022-12-04T17:54:58.204Z,2.60
2022-12-04T17:57:45.080Z,2.60
2022-12-04T18:00:33.547Z,2.60
2022-12-04T18:03:20.721Z,2.70
2022-12-04T18:06:18.766Z,2.60
2022-12-04T18:09:06.758Z,2.60
2022-12-04T18:11:53.877Z,2.60
2022-12-04T18:14:40.776Z,2.60
2022-12-04T18:17:29.043Z,2.60
2022-12-04T18:20:15.942Z,2.70
2022-12-04T18:23:02.918Z,2.70
2022-12-04T18:25:56.050Z,2.60
2022-12-04T18:28:43.839Z,2.60
2022-12-04T18:31:30.616Z,2.70
2022-12-04T18:34:19.444Z,2.70
2022-12-04T18:37:06.392Z,2.80
2022-12-04T18:39:52.912Z,2.90
2022-12-04T18:42:39.768Z,2.90
2022-12-04T18:45:26.636Z,3.00
2022-12-04T18:48:15.417Z,3.00
2022-12-04T18:51:14.036Z,3.00
2022-12-04T18:54:02.634Z,3.00
2022-12-04T18:56:50.058Z,3.00
2022-12-04T18:59:38.586Z,3.00
2022-12-04T19:02:25.442Z,3.00
2022-12-04T19:05:12.289Z,3.00
2022-12-04T19:08:00.593Z,3.00
2022-12-04T19:10:47.411Z,3.00
2022-12-04T19:13:33.945Z,3.00
2022-12-04T19:16:20.626Z,3.10
2022-12-04T19:19:09.002Z,3.10
2022-12-04T19:21:56.076Z,3.00
2022-12-04T19:24:44.268Z,3.10
2022-12-04T19:27:31.479Z,3.10
2022-12-04T19:30:18.120Z,3.10
2022-12-04T19:33:05.097Z,3.10
2022-12-04T19:35:58.358Z,3.10
2022-12-04T19:38:45.657Z,3.10
2022-12-04T19:41:35.246Z,3.10
2022-12-04T19:47:28.911Z,3.10
2022-12-04T19:50:15.845Z,3.10
2022-12-04T19:53:03.034Z,3.10
2022-12-04T19:55:50.226Z,3.20
2022-12-04T19:58:39.053Z,3.20
2022-12-04T20:01:28.720Z,3.10
2022-12-04T20:04:15.597Z,3.20
2022-12-04T20:07:02.297Z,3.10
2022-12-04T20:09:52.422Z,3.10
2022-12-04T20:12:39.761Z,3.10
2022-12-04T20:15:27.979Z,3.10
2022-12-04T20:18:14.477Z,3.10
2022-12-04T20:21:02.539Z,3.10
2022-12-04T20:23:51.545Z,3.10
2022-12-04T20:26:40.269Z,3.10
2022-12-04T20:29:27.023Z,3.20
2022-12-04T20:32:15.597Z,3.10
2022-12-04T20:35:02.106Z,3.10
2022-12-04T20:37:48.899Z,3.10
2022-12-04T20:40:36.054Z,3.10
2022-12-04T20:43:22.732Z,3.10
2022-12-04T20:46:14.473Z,3.10
2022-12-04T20:49:03.614Z,3.10
2022-12-04T20:51:51.381Z,3.10
2022-12-04T20:54:41.600Z,3.10
2022-12-04T20:57:31.167Z,3.10
2022-12-04T21:00:18.174Z,3.10
2022-12-04T21:03:05.015Z,3.20
2022-12-04T21:05:53.174Z,3.20
2022-12-04T21:08:56.555Z,3.20
2022-12-04T21:11:45.556Z,3.10
2022-12-04T21:14:51.640Z,3.10
2022-12-04T21:17:38.307Z,3.10
2022-12-04T21:20:25.231Z,3.10
2022-12-04T21:23:13.136Z,3.10
2022-12-04T21:25:59.891Z,3.10
2022-12-04T21:28:46.821Z,3.10
2022-12-04T21:31:33.666Z,3.10
2022-12-04T21:34:20.423Z,3.10
2022-12-04T21:37:06.820Z,3.10
2022-12-04T21:39:55.530Z,3.10
2022-12-04T21:42:44.035Z,3.10
2022-12-04T21:45:30.756Z,3.10
2022-12-04T21:48:17.702Z,3.10
2022-12-04T21:51:16.885Z,3.10
2022-12-04T21:54:14.198Z,3.10
2022-12-04T21:57:01.990Z,3.10
2022-12-04T21:59:48.753Z,3.10
2022-12-04T22:02:36.258Z,3.10
2022-12-04T22:05:23.632Z,3.10
2022-12-04T22:08:11.724Z,3.10
2022-12-04T22:10:59.122Z,3.20
2022-12-04T22:13:47.319Z,3.10
2022-12-04T22:16:39.898Z,3.10
2022-12-04T22:19:28.679Z,3.10
2022-12-04T22:22:15.595Z,3.10
2022-12-04T22:25:02.099Z,3.10
2022-12-04T22:27:48.655Z,3.10
2022-12-04T22:30:37.218Z,3.10
2022-12-04T22:33:23.705Z,3.10
2022-12-04T22:36:12.846Z,3.10
2022-12-04T22:39:09.342Z,3.10
2022-12-04T22:41:57.008Z,3.10
2022-12-04T22:44:43.849Z,3.10
2022-12-04T22:47:31.979Z,3.10
2022-12-04T22:50:19.231Z,3.10
2022-12-04T22:53:05.705Z,3.10
2022-12-04T22:55:52.293Z,3.10
2022-12-04T22:58:39.289Z,3.10
2022-12-04T23:01:27.393Z,3.10
2022-12-04T23:04:15.621Z,3.10
2022-12-04T23:07:02.103Z,3.10
2022-12-04T23:09:48.796Z,3.10
2022-12-04T23:12:35.964Z,3.20
2022-12-04T23:15:22.938Z,3.10
2022-12-04T23:18:09.421Z,3.10
2022-12-04T23:21:02.194Z,3.10
2022-12-04T23:23:50.174Z,3.10
2022-12-04T23:26:39.254Z,3.10
2022-12-04T23:32:32.604Z,3.10
2022-12-04T23:35:19.667Z,3.20
2022-12-04T23:38:07.656Z,3.10
2022-12-04T23:41:01.988Z,3.10
2022-12-04T23:43:50.350Z,3.10
2022-12-04T23:46:37.088Z,3.10
2022-12-04T23:49:23.953Z,3.10
2022-12-04T23:52:10.844Z,3.10
2022-12-04T23:54:59.356Z,3.20
2022-12-04T23:57:45.950Z,3.20
